createdAt,value
2022-10-14T00:00:44.065Z,100785.06
2022-10-14T00:03:10.567Z,100795.03
2022-10-14T00:05:40.236Z,100790.97
2022-10-14T00:08:06.819Z,100793.94
2022-10-14T00:10:37.693Z,100795.88
2022-10-14T00:13:04.256Z,100787.84
2022-10-14T00:15:30.866Z,100794.34
2022-10-14T00:17:57.423Z,100796.63
2022-10-14T00:20:23.989Z,100783.88
2022-10-14T00:22:50.506Z,100785.69
2022-10-14T00:25:17.166Z,100793.06
2022-10-14T00:27:43.651Z,100784.94
2022-10-14T00:30:10.688Z,100786.00
2022-10-14T00:32:37.154Z,100779.47
2022-10-14T00:35:03.894Z,100791.53
2022-10-14T00:37:30.403Z,100789.66
2022-10-14T00:39:57.244Z,100784.72
2022-10-14T00:42:23.794Z,100783.22
2022-10-14T00:44:50.207Z,100787.09
2022-10-14T00:47:17.141Z,100779.09
2022-10-14T00:49:44.669Z,100779.19
2022-10-14T00:52:15.599Z,100773.72
2022-10-14T00:55:02.369Z,100774.47
2022-10-14T00:57:30.091Z,100775.91
2022-10-14T01:00:02.415Z,100771.69
2022-10-14T01:02:29.558Z,100769.03
2022-10-14T01:04:56.302Z,100765.38
2022-10-14T01:07:37.537Z,100770.66
2022-10-14T01:10:33.377Z,100772.44
2022-10-14T01:13:02.836Z,100778.94
2022-10-14T01:15:41.196Z,100775.22
2022-10-14T01:18:16.787Z,100774.47
2022-10-14T01:20:43.206Z,100777.25
2022-10-14T01:23:31.652Z,100764.75
2022-10-14T01:26:34.769Z,100764.75
2022-10-14T01:29:04.079Z,100764.75
2022-10-14T01:31:36.498Z,100764.66
2022-10-14T01:34:10.145Z,100763.59
2022-10-14T01:36:44.611Z,100760.34
2022-10-14T01:39:17.882Z,100762.25
2022-10-14T01:41:52.846Z,100760.22
2022-10-14T01:44:23.308Z,100752.47
2022-10-14T01:46:54.506Z,100763.16
2022-10-14T01:49:36.170Z,100751.72
2022-10-14T01:52:09.896Z,100755.56
2022-10-14T01:54:41.607Z,100752.13
2022-10-14T01:57:11.814Z,100748.50
2022-10-14T01:59:40.300Z,100743.06
2022-10-14T02:02:06.878Z,100748.41
2022-10-14T02:04:33.429Z,100758.03
2022-10-14T02:07:50.456Z,100750.88
2022-10-14T02:10:27.164Z,100747.75
2022-10-14T02:12:53.592Z,100748.59
2022-10-14T02:15:27.938Z,100752.72
2022-10-14T02:18:06.911Z,100750.81
2022-10-14T02:20:57.970Z,100751.66
2022-10-14T02:23:30.025Z,100744.19
2022-10-14T02:25:57.006Z,100743.13
2022-10-14T02:28:27.203Z,100738.59
2022-10-14T02:30:59.045Z,100741.78
2022-10-14T02:33:31.054Z,100740.81
2022-10-14T02:35:58.049Z,100743.50
2022-10-14T02:38:25.634Z,100737.31
2022-10-14T02:40:52.529Z,100740.44
2022-10-14T02:43:19.101Z,100748.47
2022-10-14T02:45:45.679Z,100742.91
2022-10-14T02:48:13.121Z,100739.25
2022-10-14T02:50:40.958Z,100742.81
2022-10-14T02:53:07.530Z,100748.06
2022-10-14T02:55:34.057Z,100740.88
2022-10-14T02:58:00.630Z,100744.59
2022-10-14T03:00:27.314Z,100736.59
2022-10-14T03:02:53.799Z,100738.41
2022-10-14T03:05:20.402Z,100735.63
2022-10-14T03:07:46.867Z,100739.81
2022-10-14T03:10:13.409Z,100737.38
2022-10-14T03:12:40.054Z,100741.38
2022-10-14T03:15:07.680Z,100743.13
2022-10-14T03:17:34.202Z,100736.91
2022-10-14T03:20:00.715Z,100747.50
2022-10-14T03:22:27.227Z,100732.19
2022-10-14T03:24:53.706Z,100734.13
2022-10-14T03:27:20.178Z,100728.56
2022-10-14T03:29:46.678Z,100732.84
2022-10-14T03:32:13.443Z,100732.66
2022-10-14T03:34:39.944Z,100738.44
2022-10-14T03:37:06.502Z,100725.53
2022-10-14T03:39:33.081Z,100733.56
2022-10-14T03:42:00.090Z,100730.56
2022-10-14T03:44:26.579Z,100731.13
2022-10-14T03:46:53.314Z,100728.03
2022-10-14T03:49:19.845Z,100729.44
2022-10-14T03:51:46.327Z,100730.09
2022-10-14T03:54:12.886Z,100732.53
2022-10-14T03:56:39.375Z,100723.44
2022-10-14T03:59:05.912Z,100717.81
2022-10-14T04:01:32.526Z,100718.31
2022-10-14T04:03:59.023Z,100713.94
2022-10-14T04:06:25.526Z,100714.91
2022-10-14T04:08:52.045Z,100720.16
2022-10-14T04:11:18.577Z,100714.91
2022-10-14T04:13:45.449Z,100712.22
2022-10-14T04:16:12.237Z,100700.69
2022-10-14T04:18:39.378Z,100706.22
2022-10-14T04:21:08.927Z,100702.91
2022-10-14T04:23:35.816Z,100699.50
2022-10-14T04:26:07.509Z,100699.34
2022-10-14T04:28:34.610Z,100706.09
2022-10-14T04:31:01.548Z,100702.69
2022-10-14T04:33:28.354Z,100701.91
2022-10-14T04:36:04.195Z,100702.97
2022-10-14T04:38:30.878Z,100704.25
2022-10-14T04:40:57.974Z,100701.03
2022-10-14T04:43:24.577Z,100701.34
2022-10-14T04:45:51.747Z,100699.38
2022-10-14T04:48:19.608Z,100696.72
2022-10-14T04:50:46.106Z,100698.88
2022-10-14T04:53:14.025Z,100700.66
2022-10-14T04:55:41.421Z,100703.53
2022-10-14T04:58:08.227Z,100716.47
2022-10-14T05:00:34.948Z,100716.38
2022-10-14T05:03:01.429Z,100711.03
2022-10-14T05:05:27.998Z,100715.50
2022-10-14T05:07:54.523Z,100717.22
2022-10-14T05:10:21.120Z,100708.22
2022-10-14T05:12:48.089Z,100715.97
2022-10-14T05:15:15.019Z,100707.25
2022-10-14T05:17:44.535Z,100714.22
2022-10-14T05:20:12.197Z,100713.38
2022-10-14T05:22:39.171Z,100714.13
2022-10-14T05:25:06.397Z,100718.44
2022-10-14T05:27:32.950Z,100722.72
2022-10-14T05:29:59.446Z,100712.00
2022-10-14T05:32:25.941Z,100720.91
2022-10-14T05:34:52.436Z,100719.94
2022-10-14T05:37:18.925Z,100719.94
2022-10-14T05:39:45.401Z,100721.47
2022-10-14T05:42:12.151Z,100725.72
2022-10-14T05:44:38.673Z,100724.88
2022-10-14T05:47:05.359Z,100722.13
2022-10-14T05:49:31.832Z,100729.72
2022-10-14T05:51:58.389Z,100728.44
2022-10-14T05:54:24.937Z,100722.47
2022-10-14T05:56:52.262Z,100726.44
2022-10-14T05:59:18.821Z,100725.06
2022-10-14T06:01:45.393Z,100726.66
2022-10-14T06:04:19.945Z,100730.75
2022-10-14T06:06:46.815Z,100736.44
2022-10-14T06:09:13.539Z,100738.47
2022-10-14T06:11:40.416Z,100738.78
2022-10-14T06:14:06.916Z,100745.34
2022-10-14T06:16:33.479Z,100738.38
2022-10-14T06:18:59.981Z,100733.22
2022-10-14T06:21:26.505Z,100737.78
2022-10-14T06:23:53.014Z,100740.66
2022-10-14T06:26:19.562Z,100740.13
2022-10-14T06:28:46.474Z,100739.38
2022-10-14T06:31:13.143Z,100741.38
2022-10-14T06:33:39.947Z,100747.78
2022-10-14T06:36:07.207Z,100743.66
2022-10-14T06:38:36.067Z,100752.84
2022-10-14T06:41:02.661Z,100755.84
2022-10-14T06:43:29.139Z,100751.63
2022-10-14T06:45:57.665Z,100750.94
2022-10-14T06:48:24.203Z,100753.94
2022-10-14T06:50:50.763Z,100749.56
2022-10-14T06:53:17.261Z,100756.69
2022-10-14T06:55:43.869Z,100740.59
2022-10-14T06:58:10.342Z,100749.44
2022-10-14T07:00:37.402Z,100748.38
2022-10-14T07:03:04.213Z,100751.19
2022-10-14T07:05:30.983Z,100744.59
2022-10-14T07:07:58.607Z,100745.81
2022-10-14T07:10:25.210Z,100743.47
2022-10-14T07:12:55.723Z,100742.94
2022-10-14T07:15:22.619Z,100745.97
2022-10-14T07:17:49.107Z,100744.47
2022-10-14T07:20:15.923Z,100749.75
2022-10-14T07:22:42.753Z,100737.56
2022-10-14T07:25:09.683Z,100739.53
2022-10-14T07:27:36.529Z,100740.03
2022-10-14T07:30:04.587Z,100738.69
2022-10-14T07:32:31.668Z,100733.41
2022-10-14T07:34:59.030Z,100742.69
2022-10-14T07:37:25.721Z,100746.72
2022-10-14T07:39:52.311Z,100742.81
2022-10-14T07:44:50.389Z,100747.13
2022-10-14T07:47:17.134Z,100735.59
2022-10-14T07:49:43.636Z,100740.59
2022-10-14T07:52:10.110Z,100737.44
2022-10-14T07:54:36.595Z,100727.75
2022-10-14T07:57:04.296Z,100722.91
2022-10-14T07:59:30.794Z,100729.25
2022-10-14T08:02:01.584Z,100722.09
2022-10-14T08:04:28.235Z,100724.69
2022-10-14T08:06:54.702Z,100722.19
2022-10-14T08:09:21.625Z,100720.53
2022-10-14T08:11:48.658Z,100718.16
2022-10-14T08:14:15.897Z,100716.44
2022-10-14T08:16:42.538Z,100714.91
2022-10-14T08:19:14.565Z,100722.91
2022-10-14T08:21:42.730Z,100719.41
2022-10-14T08:24:09.686Z,100712.72
2022-10-14T08:26:38.947Z,100719.97
2022-10-14T08:29:09.727Z,100710.38
2022-10-14T08:31:36.322Z,100713.84
2022-10-14T08:34:02.851Z,100714.09
2022-10-14T08:36:29.427Z,100711.78
2022-10-14T08:38:56.167Z,100710.97
2022-10-14T08:41:32.369Z,100701.22
2022-10-14T08:44:01.734Z,100703.44
2022-10-14T08:46:32.923Z,100699.22
2022-10-14T08:49:23.473Z,100704.19
2022-10-14T08:51:58.867Z,100687.53
2022-10-14T08:54:38.284Z,100692.16
2022-10-14T08:57:12.567Z,100694.50
2022-10-14T08:59:40.567Z,100683.47
2022-10-14T09:02:41.991Z,100694.44
2022-10-14T09:05:16.898Z,100701.69
2022-10-14T09:07:45.797Z,100695.22
2022-10-14T09:10:18.911Z,100701.66
2022-10-14T09:12:45.546Z,100696.53
2022-10-14T09:15:34.479Z,100702.13
2022-10-14T09:18:26.351Z,100693.25
2022-10-14T09:20:53.996Z,100690.69
2022-10-14T09:23:24.552Z,100696.03
2022-10-14T09:26:10.489Z,100701.22
2022-10-14T09:28:40.570Z,100693.88
2022-10-14T09:31:10.758Z,100692.78
2022-10-14T09:33:42.632Z,100695.66
2022-10-14T09:36:20.980Z,100691.78
2022-10-14T09:38:52.958Z,100694.91
2022-10-14T09:41:30.830Z,100696.00
2022-10-14T09:44:21.440Z,100691.53
2022-10-14T09:46:58.428Z,100693.94
2022-10-14T09:49:43.907Z,100690.09
2022-10-14T09:52:25.057Z,100700.53
2022-10-14T09:54:57.048Z,100697.53
2022-10-14T09:57:25.270Z,100693.78
2022-10-14T09:59:56.481Z,100684.91
2022-10-14T10:02:36.727Z,100680.72
2022-10-14T10:05:22.670Z,100686.31
2022-10-14T10:08:16.629Z,100677.84
2022-10-14T10:11:03.521Z,100686.28
2022-10-14T10:13:47.160Z,100677.91
2022-10-14T10:16:34.803Z,100678.72
2022-10-14T10:19:20.257Z,100671.94
2022-10-14T10:21:48.399Z,100668.31
2022-10-14T10:24:23.021Z,100665.06
2022-10-14T10:26:51.595Z,100666.63
2022-10-14T10:29:32.310Z,100668.59
2022-10-14T10:32:12.625Z,100657.44
2022-10-14T10:34:50.826Z,100647.25
2022-10-14T10:37:17.280Z,100654.53
2022-10-14T10:39:49.819Z,100649.53
2022-10-14T10:42:22.555Z,100643.69
2022-10-14T10:44:49.227Z,100646.38
2022-10-14T10:47:39.574Z,100645.28
2022-10-14T10:50:15.146Z,100647.22
2022-10-14T10:52:53.757Z,100640.16
2022-10-14T10:55:39.279Z,100638.00
2022-10-14T10:58:55.136Z,100633.75
2022-10-14T11:01:48.512Z,100634.88
2022-10-14T11:04:37.570Z,100631.84
2022-10-14T11:07:34.094Z,100625.44
2022-10-14T11:10:30.765Z,100620.69
2022-10-14T11:13:05.770Z,100619.09
2022-10-14T11:15:39.371Z,100619.31
2022-10-14T11:18:05.849Z,100610.31
2022-10-14T11:20:44.098Z,100615.19
2022-10-14T11:23:40.241Z,100618.22
2022-10-14T11:26:24.125Z,100606.63
2022-10-14T11:29:09.926Z,100608.19
2022-10-14T11:31:51.839Z,100607.53
2022-10-14T11:34:18.258Z,100599.50
2022-10-14T11:37:20.370Z,100597.00
2022-10-14T11:40:21.187Z,100588.75
2022-10-14T11:43:01.986Z,100590.47
2022-10-14T11:45:28.517Z,100593.56
2022-10-14T11:48:09.370Z,100586.72
2022-10-14T11:50:41.966Z,100579.03
2022-10-14T11:53:16.888Z,100575.66
2022-10-14T11:55:50.585Z,100580.59
2022-10-14T11:58:29.606Z,100578.06
2022-10-14T12:01:00.222Z,100585.78
2022-10-14T12:03:59.824Z,100581.47
2022-10-14T12:06:39.339Z,100578.66
2022-10-14T12:09:21.974Z,100580.72
2022-10-14T12:11:51.237Z,100581.59
2022-10-14T12:14:24.219Z,100574.53
2022-10-14T12:16:51.523Z,100580.88
2022-10-14T12:19:25.061Z,100576.63
2022-10-14T12:22:02.367Z,100569.25
2022-10-14T12:24:34.219Z,100565.91
2022-10-14T12:27:04.618Z,100554.59
2022-10-14T12:29:49.856Z,100556.34
2022-10-14T12:32:16.282Z,100553.47
2022-10-14T12:34:44.453Z,100552.22
2022-10-14T12:37:35.219Z,100548.72
2022-10-14T12:40:02.177Z,100550.19
2022-10-14T12:42:35.978Z,100542.53
2022-10-14T12:45:18.452Z,100551.47
2022-10-14T12:47:45.014Z,100537.56
2022-10-14T12:50:14.465Z,100537.28
2022-10-14T12:52:46.025Z,100536.31
2022-10-14T12:55:20.850Z,100541.31
2022-10-14T12:57:56.399Z,100539.66
2022-10-14T13:00:22.837Z,100538.22
2022-10-14T13:02:52.065Z,100544.34
2022-10-14T13:05:42.305Z,100550.06
2022-10-14T13:08:21.179Z,100537.97
2022-10-14T13:10:50.664Z,100544.13
2022-10-14T13:13:47.999Z,100544.78
2022-10-14T13:16:23.518Z,100542.94
2022-10-14T13:18:53.204Z,100536.06
2022-10-14T13:21:34.516Z,100521.03
2022-10-14T13:24:05.299Z,100519.03
2022-10-14T13:26:44.270Z,100532.25
2022-10-14T13:29:41.231Z,100517.31
2022-10-14T13:32:27.299Z,100524.69
2022-10-14T13:35:37.801Z,100523.81
2022-10-14T13:38:13.427Z,100516.03
2022-10-14T13:40:45.836Z,100521.19
2022-10-14T13:43:15.169Z,100520.97
2022-10-14T13:45:50.040Z,100517.50
2022-10-14T13:48:20.054Z,100515.19
2022-10-14T13:50:50.406Z,100511.06
2022-10-14T13:53:20.736Z,100513.88
2022-10-14T13:55:54.994Z,100513.47
2022-10-14T13:58:23.403Z,100500.25
2022-10-14T14:00:59.128Z,100509.13
2022-10-14T14:03:37.986Z,100500.28
2022-10-14T14:06:15.555Z,100499.59
2022-10-14T14:08:54.596Z,100498.63
2022-10-14T14:11:27.678Z,100495.06
2022-10-14T14:14:16.361Z,100502.56
2022-10-14T14:17:27.936Z,100496.00
2022-10-14T14:19:54.971Z,100492.69
2022-10-14T14:22:27.255Z,100488.72
2022-10-14T14:25:25.011Z,100480.41
2022-10-14T14:28:00.259Z,100490.69
2022-10-14T14:30:28.383Z,100497.06
2022-10-14T14:32:58.422Z,100489.59
2022-10-14T14:35:25.539Z,100494.66
2022-10-14T14:37:56.026Z,100497.22
2022-10-14T14:40:29.341Z,100493.22
2022-10-14T14:43:02.162Z,100497.03
2022-10-14T14:45:37.217Z,100498.38
2022-10-14T14:48:06.865Z,100494.84
2022-10-14T14:50:43.914Z,100496.50
2022-10-14T14:53:13.902Z,100494.94
2022-10-14T14:55:57.523Z,100489.84
2022-10-14T14:58:42.508Z,100491.59
2022-10-14T15:01:19.363Z,100486.78
2022-10-14T15:04:12.526Z,100487.16
2022-10-14T15:06:50.969Z,100491.72
2022-10-14T15:09:24.114Z,100487.06
2022-10-14T15:11:54.677Z,100497.09
2022-10-14T15:14:44.153Z,100491.25
2022-10-14T15:17:33.460Z,100491.06
2022-10-14T15:20:20.920Z,100489.88
2022-10-14T15:22:49.923Z,100493.03
2022-10-14T15:25:23.270Z,100483.00
2022-10-14T15:27:56.607Z,100488.81
2022-10-14T15:30:40.243Z,100486.75
2022-10-14T15:33:13.028Z,100492.84
2022-10-14T15:35:40.251Z,100493.63
2022-10-14T15:38:15.920Z,100490.81
2022-10-14T15:40:43.675Z,100495.56
2022-10-14T15:43:20.999Z,100495.97
2022-10-14T15:46:08.182Z,100507.84
2022-10-14T15:48:35.257Z,100503.66
2022-10-14T15:51:01.767Z,100510.34
2022-10-14T15:53:28.275Z,100507.66
2022-10-14T15:55:55.091Z,100507.44
2022-10-14T15:58:21.625Z,100519.63
2022-10-14T16:00:48.287Z,100514.03
2022-10-14T16:03:17.693Z,100515.72
2022-10-14T16:05:44.385Z,100516.00
2022-10-14T16:08:13.818Z,100517.50
2022-10-14T16:10:44.676Z,100520.31
2022-10-14T16:13:12.315Z,100525.19
2022-10-14T16:15:56.261Z,100525.59
2022-10-14T16:18:24.512Z,100532.31
2022-10-14T16:20:51.718Z,100534.41
2022-10-14T16:23:20.427Z,100539.06
2022-10-14T16:25:49.270Z,100537.19
2022-10-14T16:28:18.835Z,100536.78
2022-10-14T16:30:51.111Z,100545.59
2022-10-14T16:33:24.197Z,100543.41
2022-10-14T16:35:53.405Z,100546.03
2022-10-14T16:38:20.261Z,100548.00
2022-10-14T16:40:54.625Z,100555.16
2022-10-14T16:43:21.135Z,100551.63
2022-10-14T16:45:47.643Z,100557.75
2022-10-14T16:48:14.174Z,100553.53
2022-10-14T16:50:42.956Z,100558.13
2022-10-14T16:53:27.811Z,100551.53
2022-10-14T16:55:57.100Z,100552.41
2022-10-14T16:58:25.484Z,100559.69
2022-10-14T17:00:52.012Z,100563.25
2022-10-14T17:03:18.508Z,100555.72
2022-10-14T17:05:46.540Z,100563.34
2022-10-14T17:08:13.215Z,100560.78
2022-10-14T17:10:39.786Z,100551.94
2022-10-14T17:13:06.322Z,100551.25
2022-10-14T17:15:32.934Z,100550.53
2022-10-14T17:17:59.424Z,100556.44
2022-10-14T17:20:26.680Z,100547.75
2022-10-14T17:22:53.216Z,100556.22
2022-10-14T17:25:20.042Z,100550.38
2022-10-14T17:27:46.629Z,100558.47
2022-10-14T17:30:13.172Z,100551.16
2022-10-14T17:32:39.812Z,100559.28
2022-10-14T17:35:07.580Z,100548.03
2022-10-14T17:37:35.894Z,100554.22
2022-10-14T17:40:02.851Z,100554.28
2022-10-14T17:42:31.055Z,100552.53
2022-10-14T17:44:57.554Z,100554.88
2022-10-14T17:47:24.229Z,100557.00
2022-10-14T17:49:50.939Z,100552.38
2022-10-14T17:52:17.436Z,100555.47
2022-10-14T17:54:43.942Z,100554.88
2022-10-14T17:57:10.462Z,100563.47
2022-10-14T17:59:36.971Z,100563.06
2022-10-14T18:02:04.235Z,100560.97
2022-10-14T18:04:32.736Z,100566.81
2022-10-14T18:06:59.649Z,100569.06
2022-10-14T18:09:26.220Z,100570.53
2022-10-14T18:12:09.490Z,100572.81
2022-10-14T18:14:36.971Z,100571.41
2022-10-14T18:17:05.076Z,100573.25
2022-10-14T18:19:31.629Z,100565.78
2022-10-14T18:21:58.248Z,100568.50
2022-10-14T18:24:24.785Z,100569.81
2022-10-14T18:26:52.344Z,100567.53
2022-10-14T18:29:19.006Z,100570.00
2022-10-14T18:31:45.569Z,100570.69
2022-10-14T18:34:12.368Z,100574.28
2022-10-14T18:36:39.076Z,100577.25
2022-10-14T18:39:07.982Z,100573.69
2022-10-14T18:41:34.928Z,100577.72
2022-10-14T18:44:01.445Z,100579.00
2022-10-14T18:46:30.842Z,100578.34
2022-10-14T18:48:59.048Z,100575.81
2022-10-14T18:51:31.379Z,100578.25
2022-10-14T18:54:00.738Z,100581.53
2022-10-14T18:56:30.280Z,100582.84
2022-10-14T18:59:00.070Z,100583.84
2022-10-14T19:01:27.466Z,100583.84
2022-10-14T19:03:54.659Z,100584.28
2022-10-14T19:06:22.615Z,100590.25
2022-10-14T19:08:50.139Z,100589.00
2022-10-14T19:11:23.308Z,100594.22
2022-10-14T19:13:52.126Z,100595.53
2022-10-14T19:16:24.828Z,100601.28
2022-10-14T19:18:55.970Z,100596.19
2022-10-14T19:21:26.438Z,100597.91
2022-10-14T19:23:52.930Z,100599.44
2022-10-14T19:26:21.418Z,100591.19
2022-10-14T19:28:49.732Z,100598.72
2022-10-14T19:31:19.580Z,100595.59
2022-10-14T19:33:46.651Z,100594.88
2022-10-14T19:36:15.386Z,100598.72
2022-10-14T19:38:51.084Z,100602.28
2022-10-14T19:41:18.599Z,100602.66
2022-10-14T19:43:46.388Z,100603.84
2022-10-14T19:46:13.828Z,100604.41
2022-10-14T19:48:40.557Z,100607.78
2022-10-14T19:51:11.443Z,100605.34
2022-10-14T19:53:38.850Z,100610.13
2022-10-14T19:56:08.334Z,100611.38
2022-10-14T19:58:37.652Z,100609.25
2022-10-14T20:01:13.509Z,100610.13
2022-10-14T20:03:40.642Z,100611.13
2022-10-14T20:06:08.070Z,100610.69
2022-10-14T20:08:35.247Z,100615.06
2022-10-14T20:11:06.887Z,100608.25
2022-10-14T20:13:34.024Z,100614.63
2022-10-14T20:16:02.284Z,100613.59
2022-10-14T20:18:29.762Z,100616.25
2022-10-14T20:20:57.332Z,100607.47
2022-10-14T20:23:25.178Z,100607.13
2022-10-14T20:25:51.846Z,100602.88
2022-10-14T20:28:21.043Z,100603.28
2022-10-14T20:30:48.075Z,100600.34
2022-10-14T20:33:14.934Z,100603.69
2022-10-14T20:35:41.457Z,100608.81
2022-10-14T20:38:07.997Z,100600.41
2022-10-14T20:40:35.618Z,100602.91
2022-10-14T20:43:03.045Z,100599.06
2022-10-14T20:45:29.628Z,100601.09
2022-10-14T20:47:56.161Z,100606.47
2022-10-14T20:50:22.900Z,100606.63
2022-10-14T20:52:49.668Z,100604.25
2022-10-14T20:55:16.315Z,100610.22
2022-10-14T20:57:42.834Z,100603.53
2022-10-14T21:00:09.982Z,100605.63
2022-10-14T21:02:36.669Z,100607.72
2022-10-14T21:05:03.612Z,100599.13
2022-10-14T21:07:30.104Z,100601.53
2022-10-14T21:09:56.631Z,100597.16
2022-10-14T21:12:23.310Z,100604.03
2022-10-14T21:14:49.973Z,100596.09
2022-10-14T21:17:16.542Z,100599.91
2022-10-14T21:19:43.046Z,100606.13
2022-10-14T21:22:09.643Z,100598.44
2022-10-14T21:24:36.481Z,100602.97
2022-10-14T21:27:03.066Z,100598.06
2022-10-14T21:29:29.574Z,100600.03
2022-10-14T21:31:56.090Z,100594.13
2022-10-14T21:34:24.885Z,100602.06
2022-10-14T21:36:51.541Z,100592.50
2022-10-14T21:39:18.591Z,100595.19
2022-10-14T21:41:45.738Z,100593.09
2022-10-14T21:44:17.394Z,100587.84
2022-10-14T21:46:43.961Z,100586.97
2022-10-14T21:49:11.618Z,100584.88
2022-10-14T21:51:38.724Z,100581.34
2022-10-14T21:54:06.071Z,100579.03
2022-10-14T21:56:33.039Z,100582.25
2022-10-14T21:58:59.566Z,100582.19
2022-10-14T22:01:28.611Z,100591.22
2022-10-14T22:03:58.460Z,100577.06
2022-10-14T22:06:25.909Z,100571.81
2022-10-14T22:08:55.223Z,100574.75
2022-10-14T22:11:33.043Z,100580.28
2022-10-14T22:14:01.067Z,100573.94
2022-10-14T22:16:31.613Z,100570.41
2022-10-14T22:19:00.581Z,100576.69
2022-10-14T22:21:29.412Z,100577.31
2022-10-14T22:23:56.127Z,100571.47
2022-10-14T22:26:24.676Z,100571.25
2022-10-14T22:29:12.129Z,100570.88
2022-10-14T22:31:39.007Z,100575.06
2022-10-14T22:34:07.025Z,100582.03
2022-10-14T22:36:34.452Z,100580.06
2022-10-14T22:39:02.482Z,100580.94
2022-10-14T22:41:34.943Z,100584.97
2022-10-14T22:44:02.521Z,100581.66
2022-10-14T22:46:31.436Z,100582.78
2022-10-14T22:48:58.692Z,100582.44
2022-10-14T22:51:28.521Z,100572.91
2022-10-14T22:53:55.594Z,100573.13
2022-10-14T22:56:25.098Z,100574.97
2022-10-14T22:58:56.051Z,100579.00
2022-10-14T23:01:23.645Z,100575.59
2022-10-14T23:03:50.718Z,100575.69
2022-10-14T23:06:17.509Z,100575.34
2022-10-14T23:08:44.422Z,100574.88
2022-10-14T23:11:16.786Z,100576.78
2022-10-14T23:13:43.610Z,100580.22
2022-10-14T23:16:18.734Z,100579.75
2022-10-14T23:18:45.998Z,100584.13
2022-10-14T23:21:19.609Z,100584.84
2022-10-14T23:23:47.618Z,100573.28
2022-10-14T23:26:23.552Z,100576.94
2022-10-14T23:28:58.367Z,100571.44
2022-10-14T23:31:29.959Z,100566.22
2022-10-14T23:34:01.615Z,100580.72
2022-10-14T23:36:28.811Z,100586.22
2022-10-14T23:38:55.642Z,100584.97
2022-10-14T23:41:23.330Z,100584.97
2022-10-14T23:43:51.444Z,100579.97
2022-10-14T23:46:18.997Z,100581.19
2022-10-14T23:48:51.546Z,100587.53
2022-10-14T23:51:27.518Z,100583.50
2022-10-14T23:53:54.030Z,100586.91
2022-10-14T23:56:20.498Z,100588.03
2022-10-14T23:58:47.027Z,100584.69
